Time;durP1;ratioP1;P1;durP2;ratioP2;P2;SDS_P1;SDS_P2;PMS_P1;PMS_P2;Temp;Humidity;BMP_temperature;BMP_pressure;BME280_temperature;BME280_humidity;BME280_pressure;Samples;Min_cycle;Max_cycle;Signal;HPM_P1;HPM_P2
2023/09/12 00:00:34;;;;;;;31.58;13.57;;;;;;;20.64;72.25;100563.19;2106841;28;20075;-71
2023/09/12 00:01:36;;;;;;;25.88;13.73;;;;;;;20.64;72.49;100557.72;2115448;28;20032;-70
2023/09/12 00:02:40;;;;;;;33.45;14.15;;;;;;;20.63;72.41;100564.34;2115369;28;20093;-72
2023/09/12 00:03:42;;;;;;;31.05;14.88;;;;;;;20.61;72.58;100559.19;2107608;28;20226;-72
2023/09/12 00:04:43;;;;;;;31.75;14.52;;;;;;;20.62;72.34;100566.28;2106769;28;20060;-71
2023/09/12 00:05:59;;;;;;;35.90;14.27;;;;;;;20.61;72.36;100561.94;2099247;28;20025;-72
2023/09/12 00:07:01;;;;;;;37.40;12.98;;;;;;;20.62;72.48;100562.72;2109494;28;20072;-71
2023/09/12 00:08:03;;;;;;;33.22;14.20;;;;;;;20.60;72.41;100554.88;2098874;28;20036;-72
2023/09/12 00:09:08;;;;;;;30.02;14.27;;;;;;;20.60;72.34;100561.13;2107148;28;20028;-72
2023/09/12 00:10:13;;;;;;;20.88;11.82;;;;;;;20.60;72.17;100554.88;2107392;28;20144;-72
2023/09/12 00:11:15;;;;;;;31.30;12.40;;;;;;;20.60;72.35;100561.13;2107495;28;20759;-72
2023/09/12 00:12:17;;;;;;;31.25;13.57;;;;;;;20.60;72.42;100557.63;2086716;28;21540;-71
2023/09/12 00:13:19;;;;;;;20.80;12.48;;;;;;;20.60;72.33;100557.63;2090537;28;20140;-72
2023/09/12 00:14:20;;;;;;;28.02;14.20;;;;;;;20.60;72.20;100552.16;2098428;28;20812;-71
2023/09/12 00:15:23;;;;;;;24.65;12.43;;;;;;;20.59;72.24;100559.56;2098590;28;20033;-71
2023/09/12 00:16:27;;;;;;;19.35;12.23;;;;;;;20.59;72.24;100559.56;2099668;28;20072;-72
2023/09/12 00:17:29;;;;;;;22.55;11.73;;;;;;;20.59;72.03;100558.75;2098399;28;20045;-72
2023/09/12 00:18:30;;;;;;;18.60;10.98;;;;;;;20.58;71.91;100554.44;2098825;28;20115;-72
2023/09/12 00:19:32;;;;;;;16.27;10.93;;;;;;;20.58;71.97;100551.69;2090417;28;20044;-72
2023/09/12 00:20:33;;;;;;;17.90;11.43;;;;;;;20.57;72.13;100550.91;2081787;28;20040;-72
2023/09/12 00:21:35;;;;;;;17.33;11.35;;;;;;;20.59;71.96;100551.38;2098645;28;20041;-72
2023/09/12 00:22:37;;;;;;;15.60;11.27;;;;;;;20.57;71.78;100542.72;2098181;28;20059;-72
2023/09/12 00:23:38;;;;;;;17.38;10.88;;;;;;;20.58;71.83;100541.56;2103268;28;20082;-72
2023/09/12 00:24:41;;;;;;;15.40;10.85;;;;;;;20.57;71.84;100545.44;2107001;28;20878;-71
2023/09/12 00:25:45;;;;;;;20.00;11.75;;;;;;;20.58;71.50;100544.28;2107393;28;20036;-72
2023/09/12 00:26:47;;;;;;;19.60;11.60;;;;;;;20.58;71.78;100546.22;2106993;28;20061;-71
2023/09/12 00:27:48;;;;;;;15.55;11.35;;;;;;;20.57;71.82;100545.44;2107207;28;20985;-72
2023/09/12 00:28:52;;;;;;;15.73;11.55;;;;;;;20.58;71.74;100555.22;2115241;28;20931;-72
2023/09/12 00:29:59;;;;;;;20.42;12.05;;;;;;;20.58;71.67;100549.75;2115247;28;20040;-72
2023/09/12 00:31:03;;;;;;;15.05;11.52;;;;;;;20.58;71.64;100551.69;2090940;28;20030;-71
2023/09/12 00:32:08;;;;;;;17.08;10.90;;;;;;;20.58;71.58;100549.75;2099240;27;20107;-71
2023/09/12 00:33:12;;;;;;;21.73;10.93;;;;;;;20.58;71.56;100548.97;2114948;28;20085;-72
2023/09/12 00:34:17;;;;;;;16.83;10.48;;;;;;;20.57;71.49;100553.63;2098953;28;20779;-71
2023/09/12 00:35:21;;;;;;;15.07;10.60;;;;;;;20.57;71.35;100550.91;2099183;28;20041;-72
2023/09/12 00:36:22;;;;;;;11.80;9.77;;;;;;;20.56;71.32;100554.78;2098811;28;20041;-71
2023/09/12 00:37:27;;;;;;;12.65;9.88;;;;;;;20.57;71.21;100550.13;2098807;28;20064;-71
2023/09/12 00:38:28;;;;;;;15.35;10.18;;;;;;;20.56;71.25;100552.06;2098600;28;20025;-71
2023/09/12 00:39:32;;;;;;;15.25;10.18;;;;;;;20.55;71.33;100553.22;2090319;28;20907;-71
2023/09/12 00:40:37;;;;;;;13.00;9.18;;;;;;;20.55;71.21;100553.22;2099652;28;20113;-71
2023/09/12 00:41:39;;;;;;;12.65;9.95;;;;;;;20.54;71.24;100551.59;2098538;28;20787;-71
2023/09/12 00:42:42;;;;;;;13.57;10.15;;;;;;;20.54;71.21;100548.88;2099066;28;20878;-71
2023/09/12 00:43:44;;;;;;;16.67;10.15;;;;;;;20.55;71.03;100549.66;2089967;28;20045;-71
2023/09/12 00:44:50;;;;;;;16.95;10.27;;;;;;;20.54;71.01;100550.81;2099223;28;20128;-71
2023/09/12 00:45:51;;;;;;;15.93;10.50;;;;;;;20.53;71.12;100543.75;2098443;28;20041;-71
2023/09/12 00:46:53;;;;;;;13.18;9.30;;;;;;;20.52;71.08;100537.50;2081675;28;20025;-72
2023/09/12 00:47:55;;;;;;;14.82;9.95;;;;;;;20.53;70.83;100543.75;2081566;28;20756;-71
2023/09/12 00:48:59;;;;;;;17.52;10.13;;;;;;;20.52;71.11;100548.44;2090092;28;20891;-71
2023/09/12 00:50:06;;;;;;;17.38;11.50;;;;;;;20.54;70.82;100548.06;2106903;28;20136;-72
2023/09/12 00:51:10;;;;;;;;;;;;;;;20.52;70.88;100548.44;2115709;28;20866;-72
2023/09/12 00:52:13;;;;;;;13.07;9.85;;;;;;;20.53;71.05;100549.22;2106666;28;19920;-72
2023/09/12 00:53:18;;;;;;;15.60;10.73;;;;;;;20.53;70.87;100541.03;2098743;28;20033;-72
2023/09/12 00:54:20;;;;;;;14.60;10.35;;;;;;;20.52;71.00;100537.50;2106860;28;20028;-72
2023/09/12 00:55:21;;;;;;;16.13;11.25;;;;;;;20.52;70.84;100537.50;2106512;28;20032;-71
2023/09/12 00:56:26;;;;;;;14.63;11.32;;;;;;;20.53;70.89;100535.56;2090725;28;20056;-71
2023/09/12 00:57:27;;;;;;;16.65;11.68;;;;;;;20.52;70.70;100542.16;2081771;28;20036;-72
2023/09/12 00:58:34;;;;;;;20.83;11.27;;;;;;;20.51;71.00;100538.63;2090938;28;21002;-71
2023/09/12 00:59:36;;;;;;;16.02;10.80;;;;;;;20.52;71.00;100537.50;2090470;28;20025;-72
2023/09/12 01:00:37;;;;;;;16.83;10.95;;;;;;;20.51;71.05;100546.00;2081931;28;20777;-71
2023/09/12 01:01:39;;;;;;;16.95;11.32;;;;;;;20.51;70.89;100544.09;2090197;28;20140;-71
2023/09/12 01:02:42;;;;;;;17.63;10.73;;;;;;;20.50;71.04;100539.75;2081651;28;20868;-71
2023/09/12 01:03:44;;;;;;;17.88;11.63;;;;;;;20.50;70.98;100545.22;2098967;28;20032;-71
2023/09/12 01:04:46;;;;;;;19.58;11.85;;;;;;;20.50;71.19;100541.69;2089839;28;20832;-71
2023/09/12 01:05:49;;;;;;;16.10;11.18;;;;;;;20.50;71.23;100544.41;2090523;28;20041;-71
2023/09/12 01:06:53;;;;;;;17.23;11.75;;;;;;;20.49;71.25;100540.91;2098606;28;20103;-71
2023/09/12 01:07:56;;;;;;;15.95;11.75;;;;;;;20.49;71.37;100542.81;2090615;28;20155;-71
2023/09/12 01:08:57;;;;;;;17.58;12.55;;;;;;;20.48;71.29;100536.56;2103804;28;20032;-71
2023/09/12 01:10:01;;;;;;;21.35;12.85;;;;;;;20.49;71.35;100540.91;2098293;28;20029;-71
2023/09/12 01:11:03;;;;;;;18.08;11.10;;;;;;;20.47;71.38;100536.91;2090682;28;20147;-71
2023/09/12 01:12:08;;;;;;;20.15;11.73;;;;;;;20.49;71.23;100543.63;2099163;28;20884;-71
2023/09/12 01:13:10;;;;;;;18.58;12.32;;;;;;;20.49;71.10;100549.09;2098314;28;20017;-72
2023/09/12 01:14:11;;;;;;;18.27;11.65;;;;;;;20.48;71.33;100541.22;2098033;28;20029;-71
2023/09/12 01:15:14;;;;;;;16.88;11.82;;;;;;;20.48;71.24;100546.69;2081770;28;20873;-72
2023/09/12 01:16:15;;;;;;;20.05;12.18;;;;;;;20.46;71.42;100544.31;2090169;28;20856;-71
2023/09/12 01:17:17;;;;;;;18.85;11.75;;;;;;;20.48;71.24;100542.03;2097694;28;20033;-72
2023/09/12 01:18:19;;;;;;;18.10;11.82;;;;;;;20.48;71.25;100547.47;2098208;28;20131;-72
2023/09/12 01:19:21;;;;;;;15.00;10.48;;;;;;;20.48;71.24;100544.75;2089618;28;20033;-71
2023/09/12 01:20:31;;;;;;;25.23;12.05;;;;;;;20.48;71.43;100546.69;2098610;28;20040;-72
2023/09/12 01:21:42;;;;;;;19.42;11.77;;;;;;;20.48;71.49;100539.28;2108436;28;20899;-71
2023/09/12 01:23:15;;;;;;;21.40;11.90;;;;;;;20.49;71.19;100540.91;2116767;27;20142;-71
2023/09/12 01:24:56;;;;;;;16.80;11.50;;;;;;;20.47;71.31;100537.72;2093874;28;20874;-71
2023/09/12 01:26:20;;;;;;;21.17;11.60;;;;;;;20.48;71.46;100547.47;2100447;28;20776;-71
2023/09/12 01:27:47;;;;;;;23.95;11.90;;;;;;;20.49;71.42;100540.09;2090405;28;20029;-72
2023/09/12 01:28:54;;;;;;;22.75;11.75;;;;;;;20.49;71.24;100540.09;2105526;28;20040;-72
2023/09/12 01:30:00;;;;;;;15.75;11.88;;;;;;;20.48;71.31;100542.03;2107892;27;20021;-72
2023/09/12 01:31:03;;;;;;;18.52;11.75;;;;;;;20.48;71.38;100547.47;2098810;28;20025;-71
2023/09/12 01:32:09;;;;;;;19.67;11.25;;;;;;;20.48;71.41;100541.22;2098636;27;20032;-71
2023/09/12 01:33:11;;;;;;;20.40;11.80;;;;;;;20.47;71.37;100539.66;2107382;28;20151;-72
2023/09/12 01:34:14;;;;;;;20.50;11.65;;;;;;;20.48;71.18;100542.03;2097527;28;20041;-71
2023/09/12 01:35:15;;;;;;;19.23;11.10;;;;;;;20.49;71.26;100538.16;2098404;28;20091;-71
2023/09/12 01:36:17;;;;;;;16.45;11.55;;;;;;;20.47;71.34;100536.91;2106635;27;20028;-71
2023/09/12 01:37:19;;;;;;;13.85;10.85;;;;;;;20.47;71.42;100540.44;2106449;28;20037;-71
2023/09/12 01:38:22;;;;;;;18.42;12.05;;;;;;;20.47;71.47;100539.66;2106270;27;20028;-71
2023/09/12 01:39:24;;;;;;;16.65;11.48;;;;;;;20.46;71.39;100544.31;2115229;27;20074;-71
2023/09/12 01:40:42;;;;;;;17.27;11.30;;;;;;;20.45;71.56;100548.16;2106177;28;20024;-71
2023/09/12 01:41:46;;;;;;;13.70;10.80;;;;;;;20.44;71.58;100546.59;2108677;28;20852;-71
2023/09/12 01:42:49;;;;;;;14.55;10.48;;;;;;;20.45;71.40;100544.66;2098906;28;20104;-72
2023/09/12 01:43:54;;;;;;;14.85;11.20;;;;;;;20.44;71.34;100540.34;2098056;28;20077;-71
2023/09/12 01:44:58;;;;;;;15.93;11.32;;;;;;;20.44;71.60;100535.66;2107022;28;20032;-71
2023/09/12 01:46:03;;;;;;;17.58;11.60;;;;;;;20.43;71.40;100536.81;2114763;28;20022;-71
2023/09/12 01:47:08;;;;;;;19.83;10.90;;;;;;;20.43;71.52;100538.72;2106633;28;20139;-71
2023/09/12 01:48:11;;;;;;;16.60;10.55;;;;;;;20.43;71.62;100539.56;2107271;28;20064;-71
2023/09/12 01:49:16;;;;;;;16.52;11.38;;;;;;;20.42;71.59;100537.16;2105657;28;20045;-71
2023/09/12 01:50:20;;;;;;;17.05;11.27;;;;;;;20.42;71.49;100537.16;2107725;27;20070;-71
2023/09/12 01:51:25;;;;;;;14.52;10.63;;;;;;;20.43;71.70;100536.81;2097756;28;20250;-71
2023/09/12 01:52:30;;;;;;;15.48;10.15;;;;;;;20.42;71.40;100543.41;2090691;28;20927;-71
2023/09/12 01:53:33;;;;;;;19.67;11.13;;;;;;;20.41;71.64;100541.81;2115196;27;20166;-71
2023/09/12 01:54:38;;;;;;;14.15;10.40;;;;;;;20.40;71.64;100548.44;2114615;28;21349;-71
2023/09/12 01:55:44;;;;;;;14.10;9.82;;;;;;;20.38;71.61;100540.56;2107295;28;20075;-71
2023/09/12 01:56:46;;;;;;;15.35;9.90;;;;;;;20.39;71.65;100538.63;2090139;28;20042;-71
2023/09/12 01:57:49;;;;;;;15.82;9.82;;;;;;;20.39;71.70;100544.09;2098650;27;20080;-71
2023/09/12 01:58:56;;;;;;;17.58;9.52;;;;;;;20.39;71.66;100530.44;2106090;28;20954;-71
2023/09/12 02:00:01;;;;;;;14.98;10.30;;;;;;;20.39;71.79;100535.91;2107665;28;20032;-71
2023/09/12 02:01:03;;;;;;;13.52;9.55;;;;;;;20.37;71.62;100536.25;2106617;28;20025;-71
2023/09/12 02:02:07;;;;;;;13.18;9.82;;;;;;;20.37;71.67;100532.72;2089589;28;20060;-72
2023/09/12 02:03:08;;;;;;;13.60;9.75;;;;;;;20.37;71.69;100538.19;2082094;28;20903;-72
2023/09/12 02:04:12;;;;;;;14.75;9.95;;;;;;;20.36;71.67;100539.31;2097834;28;20041;-71
2023/09/12 02:05:21;;;;;;;15.55;9.13;;;;;;;20.36;71.91;100536.59;2098141;28;20167;-70
2023/09/12 02:06:23;;;;;;;12.52;9.70;;;;;;;20.35;71.77;100538.53;2107321;28;20047;-71
2023/09/12 02:07:32;;;;;;;14.65;9.98;;;;;;;20.34;71.85;100536.94;2098315;28;20151;-71
2023/09/12 02:08:36;;;;;;;14.88;9.43;;;;;;;20.35;71.87;100538.53;2111445;27;20036;-71
2023/09/12 02:09:38;;;;;;;14.40;9.45;;;;;;;20.36;71.87;100539.31;2105995;28;20032;-71
2023/09/12 02:10:42;;;;;;;15.68;9.43;;;;;;;20.35;71.86;100537.72;2090855;28;20037;-71
2023/09/12 02:11:43;;;;;;;14.75;9.30;;;;;;;20.34;72.01;100536.94;2106565;27;20831;-70
2023/09/12 02:12:45;;;;;;;12.65;8.85;;;;;;;20.35;72.01;100540.47;2114819;27;20135;-70
2023/09/12 02:13:47;;;;;;;13.45;9.70;;;;;;;20.36;72.00;100539.31;2097594;28;20045;-70
2023/09/12 02:14:50;;;;;;;16.20;9.35;;;;;;;20.37;71.87;100546.38;2090701;28;20031;-71
2023/09/12 02:15:59;;;;;;;13.55;9.23;;;;;;;20.35;71.99;100545.94;2106075;27;20013;-70
2023/09/12 02:17:01;;;;;;;17.40;9.85;;;;;;;20.37;72.10;100547.19;2107219;28;20151;-71
2023/09/12 02:18:04;;;;;;;13.88;9.85;;;;;;;20.37;72.13;100543.66;2106433;27;20772;-71
2023/09/12 02:19:08;;;;;;;15.57;10.82;;;;;;;20.38;72.04;100550.69;2114535;28;20082;-71
2023/09/12 02:20:11;;;;;;;13.00;9.18;;;;;;;20.38;72.15;100553.44;2090783;28;20029;-71
2023/09/12 02:21:18;;;;;;;13.70;9.40;;;;;;;20.38;71.98;100542.50;2092087;28;20104;-71
2023/09/12 02:22:20;;;;;;;16.48;9.82;;;;;;;20.39;72.08;100552.28;2097722;28;20036;-71
2023/09/12 02:23:22;;;;;;;13.45;8.95;;;;;;;20.39;72.04;100552.28;2098185;28;20883;-71
2023/09/12 02:24:24;;;;;;;12.57;9.98;;;;;;;20.39;72.10;100538.63;2097434;28;20065;-71
2023/09/12 02:25:28;;;;;;;12.77;9.20;;;;;;;20.41;72.21;100546.50;2089461;28;20756;-71
2023/09/12 02:26:35;;;;;;;14.85;9.60;;;;;;;20.41;72.07;100547.28;2090197;28;20793;-71
2023/09/12 02:27:39;;;;;;;14.68;9.80;;;;;;;20.41;72.03;100546.50;2098589;28;20033;-71
2023/09/12 02:28:40;;;;;;;12.45;9.68;;;;;;;20.42;72.02;100545.34;2089877;28;20032;-71
2023/09/12 02:29:45;;;;;;;12.18;9.55;;;;;;;20.41;71.97;100550.00;2098076;28;20783;-71
2023/09/12 02:30:47;;;;;;;14.70;9.77;;;;;;;20.43;71.93;100542.28;2089957;28;20820;-71
2023/09/12 02:31:48;;;;;;;13.40;9.65;;;;;;;20.43;72.05;100546.91;2097982;28;20026;-71
2023/09/12 02:32:50;;;;;;;14.32;10.05;;;;;;;20.43;72.14;100542.28;2098096;28;20033;-71
2023/09/12 02:33:54;;;;;;;15.13;10.07;;;;;;;20.43;71.85;100539.56;2098112;28;20095;-72
2023/09/12 02:34:57;;;;;;;16.67;10.57;;;;;;;20.43;71.95;100545.00;2097651;28;20045;-71
2023/09/12 02:35:58;;;;;;;16.35;10.10;;;;;;;20.43;72.12;100539.56;2097847;28;20064;-72
2023/09/12 02:37:00;;;;;;;11.13;8.77;;;;;;;20.44;72.01;100532.94;2098042;28;20040;-71
2023/09/12 02:38:03;;;;;;;13.38;9.18;;;;;;;20.44;72.29;100535.66;2107766;28;20094;-71
2023/09/12 02:39:07;;;;;;;11.18;9.05;;;;;;;20.45;72.02;100539.19;2090692;28;20046;-72
2023/09/12 02:40:14;;;;;;;11.98;9.20;;;;;;;20.45;72.06;100534.53;2091677;28;21001;-72
2023/09/12 02:41:16;;;;;;;15.07;9.50;;;;;;;20.44;71.92;100541.13;2092438;28;20026;-72
2023/09/12 02:42:17;;;;;;;14.77;9.77;;;;;;;20.45;72.03;100539.97;2099245;28;20040;-72
2023/09/12 02:43:19;;;;;;;13.10;9.27;;;;;;;20.45;72.08;100536.47;2099150;28;20561;-72
2023/09/12 02:44:21;;;;;;;11.82;9.15;;;;;;;20.46;72.05;100538.03;2099478;28;20037;-71
2023/09/12 02:45:25;;;;;;;12.52;9.00;;;;;;;20.44;72.00;100535.66;2090692;28;20038;-72
2023/09/12 02:46:28;;;;;;;12.25;9.13;;;;;;;20.45;72.19;100531.00;2083132;28;21169;-69
2023/09/12 02:47:29;;;;;;;12.57;9.25;;;;;;;20.44;72.05;100535.66;2082941;28;20054;-69
2023/09/12 02:48:32;;;;;;;12.45;9.02;;;;;;;20.45;72.34;100539.19;2107825;27;20024;-71
2023/09/12 02:49:39;;;;;;;12.65;8.85;;;;;;;20.44;72.16;100541.13;2115578;28;20921;-71
2023/09/12 02:50:40;;;;;;;14.90;8.95;;;;;;;20.43;72.18;100539.56;2099956;28;20158;-69
2023/09/12 02:51:45;;;;;;;11.02;8.80;;;;;;;20.43;72.21;100538.72;2099085;28;20136;-70
2023/09/12 02:52:48;;;;;;;10.57;9.13;;;;;;;20.43;72.15;100533.28;2100014;28;20029;-69
2023/09/12 02:53:52;;;;;;;10.93;8.40;;;;;;;20.43;72.45;100542.28;2108357;27;20039;-70
2023/09/12 02:54:54;;;;;;;12.73;8.82;;;;;;;20.42;72.38;100540.66;2107567;28;20060;-71
2023/09/12 02:55:56;;;;;;;12.60;9.40;;;;;;;20.42;72.33;100537.94;2090843;28;20021;-71
2023/09/12 02:56:58;;;;;;;11.65;8.73;;;;;;;20.43;72.42;100539.56;2090867;28;20799;-71
2023/09/12 02:58:03;;;;;;;12.93;8.63;;;;;;;20.41;72.22;100536.34;2090809;28;20103;-72
2023/09/12 02:59:05;;;;;;;11.75;8.82;;;;;;;20.43;72.34;100533.28;2092353;28;20034;-71
2023/09/12 03:00:11;;;;;;;11.77;8.55;;;;;;;20.42;72.66;100537.94;2099039;28;20021;-71
2023/09/12 03:01:22;;;;;;;11.60;8.63;;;;;;;20.41;72.60;100536.34;2091925;28;20028;-71
2023/09/12 03:02:24;;;;;;;9.48;7.88;;;;;;;20.41;72.52;100536.34;2093357;28;20034;-72
2023/09/12 03:03:30;;;;;;;12.45;8.48;;;;;;;20.42;72.45;100537.94;2099944;28;20091;-72
2023/09/12 03:04:36;;;;;;;15.55;9.13;;;;;;;20.41;72.55;100536.34;2117055;27;20032;-71
2023/09/12 03:05:40;;;;;;;11.18;8.15;;;;;;;20.42;72.55;100537.16;2115843;28;20036;-72
2023/09/12 03:06:43;;;;;;;12.07;9.38;;;;;;;20.39;72.55;100538.63;2107266;28;20032;-71
2023/09/12 03:07:45;;;;;;;12.75;9.43;;;;;;;20.40;72.68;100540.25;2099289;28;20053;-71
2023/09/12 03:08:47;;;;;;;14.13;9.43;;;;;;;20.38;72.70;100531.59;2107285;28;20032;-72
2023/09/12 03:09:52;;;;;;;12.75;9.52;;;;;;;20.35;72.72;100535.00;2107729;28;20902;-72
2023/09/12 03:11:14;;;;;;;12.93;9.60;;;;;;;20.35;72.80;100538.53;2099287;28;20164;-72
2023/09/12 03:12:19;;;;;;;13.05;9.40;;;;;;;20.34;72.78;100536.94;2096773;28;20030;-72
2023/09/12 03:13:24;;;;;;;12.93;9.40;;;;;;;20.33;72.75;100540.00;2099770;28;20033;-72
2023/09/12 03:14:28;;;;;;;12.93;9.40;;;;;;;20.31;72.94;100542.31;2099084;28;20783;-72
2023/09/12 03:15:37;;;;;;;13.20;9.23;;;;;;;20.31;73.08;100537.63;2100144;28;20045;-72
2023/09/12 03:16:39;;;;;;;14.75;9.65;;;;;;;20.30;73.15;100540.69;2108402;28;20070;-72
2023/09/12 03:17:41;;;;;;;11.20;8.73;;;;;;;20.30;73.04;100536.06;2099185;28;20043;-72
2023/09/12 03:18:46;;;;;;;10.18;8.40;;;;;;;20.30;73.12;100540.69;2099217;28;20036;-72
2023/09/12 03:19:48;;;;;;;14.70;9.02;;;;;;;20.30;73.09;100543.41;2099513;28;20068;-72
2023/09/12 03:20:49;;;;;;;12.23;9.57;;;;;;;20.30;73.18;100535.22;2099080;28;20025;-72
2023/09/12 03:21:53;;;;;;;14.90;9.30;;;;;;;20.29;73.07;100542.63;2099327;28;20021;-72
2023/09/12 03:22:55;;;;;;;13.05;9.32;;;;;;;20.29;73.20;100544.56;2092308;28;20033;-72
2023/09/12 03:23:59;;;;;;;13.57;9.23;;;;;;;20.29;73.11;100539.91;2098027;28;20033;-72
2023/09/12 03:25:02;;;;;;;11.52;8.50;;;;;;;20.27;73.38;100539.47;2091417;28;20968;-72
2023/09/12 03:26:04;;;;;;;12.18;9.23;;;;;;;20.27;73.32;100535.91;2098853;28;20037;-72
2023/09/12 03:27:07;;;;;;;13.40;9.18;;;;;;;20.27;73.28;100535.91;2082798;28;20137;-72
2023/09/12 03:28:11;;;;;;;10.20;8.50;;;;;;;20.26;73.31;100543.31;2099408;28;20136;-72
2023/09/12 03:29:14;;;;;;;12.68;9.13;;;;;;;20.27;73.03;100544.13;2107130;28;20874;-71
2023/09/12 03:30:15;;;;;;;12.88;9.00;;;;;;;20.26;73.22;100534.34;2115797;27;20948;-72
2023/09/12 03:31:19;;;;;;;14.75;8.90;;;;;;;20.26;73.10;100529.66;2106786;28;20071;-72
2023/09/12 03:32:21;;;;;;;13.30;9.43;;;;;;;20.26;73.10;100537.84;2090922;28;20030;-72
2023/09/12 03:33:23;;;;;;;12.10;8.77;;;;;;;20.26;73.07;100526.16;2098812;28;20202;-72
2023/09/12 03:34:25;;;;;;;11.80;9.07;;;;;;;20.26;73.06;100528.88;2107543;28;20151;-72
2023/09/12 03:35:29;;;;;;;11.55;8.68;;;;;;;20.25;73.04;100539.00;2106767;28;21052;-72
2023/09/12 03:36:30;;;;;;;12.30;8.88;;;;;;;20.26;73.11;100531.59;2099215;28;20036;-72
2023/09/12 03:37:32;;;;;;;11.75;9.02;;;;;;;20.27;73.14;100530.47;2090217;28;20096;-72
2023/09/12 03:38:38;;;;;;;14.65;9.93;;;;;;;20.27;73.05;100535.91;2083232;28;20074;-71
2023/09/12 03:39:41;;;;;;;12.25;9.30;;;;;;;20.27;73.07;100530.47;2088846;28;20765;-72
2023/09/12 03:40:43;;;;;;;11.48;8.48;;;;;;;20.27;73.14;100536.75;2107107;28;20036;-72
2023/09/12 03:41:44;;;;;;;11.35;8.77;;;;;;;20.27;73.23;100531.28;2098522;28;20041;-72
2023/09/12 03:42:46;;;;;;;14.05;10.15;;;;;;;20.28;73.17;100532.06;2090476;28;20081;-72
2023/09/12 03:43:48;;;;;;;12.48;8.98;;;;;;;20.27;73.18;100534.00;2098778;28;20080;-72
2023/09/12 03:44:50;;;;;;;11.48;8.27;;;;;;;20.29;73.15;100528.19;2107544;28;20899;-72
2023/09/12 03:45:51;;;;;;;12.40;8.45;;;;;;;20.28;73.13;100532.06;2098460;28;20147;-72
2023/09/12 03:46:54;;;;;;;11.75;8.65;;;;;;;20.29;73.11;100528.19;2082361;28;20030;-72
2023/09/12 03:47:55;;;;;;;11.90;8.40;;;;;;;20.29;73.02;100528.19;2082576;28;20073;-72
2023/09/12 03:48:57;;;;;;;10.93;7.90;;;;;;;20.29;73.17;100531.72;2089902;28;20144;-72
2023/09/12 03:49:59;;;;;;;13.40;8.32;;;;;;;20.30;72.94;100535.22;2090366;28;20120;-72
2023/09/12 03:51:02;;;;;;;11.18;8.35;;;;;;;20.30;73.08;100535.22;2082259;28;20038;-72
2023/09/12 03:52:05;;;;;;;13.18;8.35;;;;;;;20.30;73.04;100536.06;2091270;28;20021;-72
2023/09/12 03:53:06;;;;;;;12.35;9.02;;;;;;;20.31;73.03;100536.84;2090426;28;20151;-72
2023/09/12 03:54:10;;;;;;;11.38;8.18;;;;;;;20.30;72.96;100525.13;2082757;28;20040;-72
2023/09/12 03:55:14;;;;;;;11.65;8.88;;;;;;;20.31;73.06;100531.38;2090194;28;20143;-72
2023/09/12 03:56:15;;;;;;;12.43;8.30;;;;;;;20.30;73.03;100529.78;2074965;28;20976;-72
2023/09/12 03:57:20;;;;;;;11.23;8.85;;;;;;;20.31;72.85;100534.91;2082189;28;20895;-72
2023/09/12 03:58:22;;;;;;;11.00;8.52;;;;;;;20.31;73.23;100525.91;2090553;28;20026;-72
2023/09/12 03:59:26;;;;;;;13.10;8.75;;;;;;;20.31;73.06;100526.72;2091541;28;21335;-72
2023/09/12 04:00:29;;;;;;;11.82;9.27;;;;;;;20.31;73.07;100525.91;2098825;28;20033;-72
2023/09/12 04:01:33;;;;;;;11.20;9.15;;;;;;;20.31;73.12;100534.91;2107205;28;20031;-72
2023/09/12 04:02:34;;;;;;;13.43;9.05;;;;;;;20.30;72.91;100529.78;2115217;28;20032;-72
2023/09/12 04:03:36;;;;;;;10.50;8.60;;;;;;;20.31;72.90;100536.84;2098346;28;20405;-71
2023/09/12 04:04:40;;;;;;;12.50;9.35;;;;;;;20.30;72.81;100529.78;2090244;28;20032;-70
2023/09/12 04:05:41;;;;;;;12.23;8.52;;;;;;;20.29;73.15;100525.47;2090618;28;20060;-72
2023/09/12 04:06:43;;;;;;;15.10;9.27;;;;;;;20.28;72.77;100529.34;2090033;28;20042;-72
2023/09/12 04:07:44;;;;;;;12.57;8.82;;;;;;;20.29;72.79;100528.97;2098649;28;20840;-73
2023/09/12 04:08:46;;;;;;;13.10;9.13;;;;;;;20.28;73.01;100527.41;2105964;28;20050;-72
2023/09/12 04:09:48;;;;;;;12.10;8.93;;;;;;;20.28;73.03;100526.63;2107226;28;20071;-72
2023/09/12 04:10:49;;;;;;;12.77;8.90;;;;;;;20.29;72.82;100528.19;2115412;28;20063;-71
2023/09/12 04:11:51;;;;;;;13.15;9.13;;;;;;;20.29;72.79;100534.44;2098767;28;20127;-72
2023/09/12 04:12:54;;;;;;;13.90;9.23;;;;;;;20.28;72.81;100526.63;2081957;28;20048;-72
2023/09/12 04:13:58;;;;;;;12.80;9.05;;;;;;;20.28;72.85;100535.59;2090732;28;20764;-72
2023/09/12 04:15:02;;;;;;;16.85;9.02;;;;;;;20.29;72.71;100533.66;2098982;28;20599;-71
2023/09/12 04:16:09;;;;;;;11.50;8.60;;;;;;;20.30;72.67;100529.78;2098262;28;20079;-72
2023/09/12 04:17:11;;;;;;;11.20;8.93;;;;;;;20.28;72.86;100527.41;2097641;28;20043;-72
2023/09/12 04:18:19;;;;;;;13.20;8.93;;;;;;;20.28;72.67;100532.06;2098191;28;20021;-72
2023/09/12 04:19:25;;;;;;;12.55;8.77;;;;;;;20.29;72.70;100528.19;2091566;28;20882;-71
2023/09/12 04:20:28;;;;;;;11.52;8.63;;;;;;;20.28;72.25;100527.41;2090823;28;20041;-72
2023/09/12 04:21:33;;;;;;;13.68;8.70;;;;;;;20.29;72.50;100528.19;2097486;28;20067;-71
2023/09/12 04:22:37;;;;;;;14.68;9.00;;;;;;;20.27;72.66;100523.09;2101359;28;20049;-71
2023/09/12 04:23:45;;;;;;;10.52;8.30;;;;;;;20.28;72.60;100521.16;2101567;28;20032;-72
2023/09/12 04:24:47;;;;;;;14.18;8.98;;;;;;;20.28;72.30;100521.16;2107497;27;20124;-71
2023/09/12 04:25:49;;;;;;;13.00;8.55;;;;;;;20.27;72.48;100522.28;2105445;28;20170;-71
2023/09/12 04:26:50;;;;;;;13.52;8.90;;;;;;;20.26;72.37;100523.41;2097098;28;20149;-71
2023/09/12 04:27:56;;;;;;;14.25;9.13;;;;;;;20.27;72.49;100514.06;2105862;27;20032;-71
2023/09/12 04:29:01;;;;;;;11.75;8.90;;;;;;;20.26;72.54;100521.47;2115205;27;20036;-71
2023/09/12 04:30:06;;;;;;;12.35;9.10;;;;;;;20.28;72.55;100516.47;2105872;28;20839;-71
2023/09/12 04:31:08;;;;;;;13.23;8.73;;;;;;;20.27;72.41;100514.91;2089872;28;20018;-71
2023/09/12 04:32:11;;;;;;;11.05;8.48;;;;;;;20.29;72.48;100517.28;2090142;28;20041;-71
2023/09/12 04:33:14;;;;;;;13.93;8.77;;;;;;;20.29;72.49;100517.28;2114737;27;20897;-71
2023/09/12 04:34:15;;;;;;;12.75;8.30;;;;;;;20.31;72.46;100515.00;2114426;27;20146;-71
2023/09/12 04:35:20;;;;;;;11.75;8.70;;;;;;;20.30;72.61;100508.75;2105980;28;20825;-68
2023/09/12 04:36:21;;;;;;;12.13;8.70;;;;;;;20.31;72.37;100515.00;2098412;28;20146;-71
2023/09/12 04:37:25;;;;;;;11.68;8.45;;;;;;;20.31;72.60;100512.28;2097434;28;20040;-71
2023/09/12 04:38:27;;;;;;;11.02;8.90;;;;;;;20.33;72.46;100515.44;2098189;28;20814;-71
2023/09/12 04:39:29;;;;;;;13.45;9.60;;;;;;;20.33;72.64;100513.53;2105770;27;20036;-71
2023/09/12 04:40:33;;;;;;;11.80;8.48;;;;;;;20.34;72.56;100522.50;2114112;28;20096;-70
2023/09/12 04:41:37;;;;;;;13.10;9.13;;;;;;;20.34;72.44;100511.59;2097821;28;20047;-70
2023/09/12 04:42:40;;;;;;;12.48;8.52;;;;;;;20.35;72.54;100516.69;2097898;28;20029;-72
2023/09/12 04:43:41;;;;;;;14.48;8.90;;;;;;;20.36;72.50;100518.28;2097454;28;20033;-71
2023/09/12 04:44:44;;;;;;;13.27;8.82;;;;;;;20.37;72.35;100519.09;2105483;27;20028;-71
2023/09/12 04:45:48;;;;;;;12.20;9.10;;;;;;;20.37;72.27;100519.09;2114199;27;20158;-71
2023/09/12 04:46:50;;;;;;;11.23;9.00;;;;;;;20.38;72.46;100515.19;2114110;27;20151;-71
2023/09/12 04:47:54;;;;;;;12.23;9.73;;;;;;;20.38;72.33;100520.66;2105233;28;20135;-71
2023/09/12 04:48:55;;;;;;;12.63;8.30;;;;;;;20.37;72.22;100517.13;2112570;27;20154;-71
2023/09/12 04:49:57;;;;;;;11.57;8.88;;;;;;;20.40;72.11;100523.03;2105111;28;20917;-71
2023/09/12 04:50:59;;;;;;;12.43;9.05;;;;;;;20.39;72.25;100519.50;2089271;28;20044;-71
2023/09/12 04:52:01;;;;;;;10.73;8.95;;;;;;;20.40;72.15;100517.56;2097935;27;21161;-71